createdAt,value
2017-09-19T00:01:12.376Z,13.10
2017-09-19T00:03:40.537Z,12.37
2017-09-19T00:06:08.677Z,12.40
2017-09-19T00:08:36.841Z,15.63
2017-09-19T00:11:06.510Z,14.13
2017-09-19T00:13:34.673Z,14.60
2017-09-19T00:16:02.828Z,13.97
2017-09-19T00:18:31.002Z,15.73
2017-09-19T00:20:59.871Z,16.20
2017-09-19T00:23:28.040Z,17.60
2017-09-19T00:25:56.956Z,16.33
2017-09-19T00:28:25.072Z,17.30
2017-09-19T00:30:53.218Z,18.10
2017-09-19T00:33:22.395Z,19.13
2017-09-19T00:35:50.531Z,18.27
2017-09-19T00:38:18.655Z,16.60
2017-09-19T00:40:47.976Z,16.80
2017-09-19T00:43:16.093Z,16.73
2017-09-19T00:45:44.963Z,18.07
2017-09-19T00:48:13.401Z,16.10
2017-09-19T00:50:41.519Z,16.60
2017-09-19T00:53:09.653Z,17.73
2017-09-19T00:55:37.782Z,17.70
2017-09-19T00:58:05.996Z,18.20
2017-09-19T01:00:34.124Z,16.17
2017-09-19T01:03:02.289Z,18.30
2017-09-19T01:05:30.407Z,17.20
2017-09-19T01:07:59.303Z,18.40
2017-09-19T01:10:28.224Z,17.30
2017-09-19T01:12:56.351Z,17.30
2017-09-19T01:15:24.493Z,18.40
2017-09-19T01:17:52.616Z,17.90
2017-09-19T01:20:20.777Z,15.30
2017-09-19T01:22:49.004Z,15.50
2017-09-19T01:25:17.137Z,15.93
2017-09-19T01:27:45.288Z,15.73
2017-09-19T01:30:13.401Z,16.27
2017-09-19T01:32:41.599Z,15.73
2017-09-19T01:35:09.736Z,16.53
2017-09-19T01:37:37.883Z,15.97
2017-09-19T01:40:06.050Z,15.60
2017-09-19T01:42:34.203Z,14.60
2017-09-19T01:45:02.420Z,15.20
2017-09-19T01:47:30.725Z,13.83
2017-09-19T01:49:58.859Z,14.87
2017-09-19T01:52:27.043Z,14.43
2017-09-19T01:54:55.881Z,14.87
2017-09-19T01:57:24.014Z,15.03
2017-09-19T01:59:52.289Z,14.87
2017-09-19T02:02:21.188Z,14.87
2017-09-19T02:04:50.475Z,15.23
2017-09-19T02:07:18.636Z,16.30
2017-09-19T02:09:47.419Z,16.33
2017-09-19T02:12:15.551Z,16.20
2017-09-19T02:14:43.695Z,15.87
2017-09-19T02:17:11.848Z,16.13
2017-09-19T02:19:39.997Z,14.93
2017-09-19T02:22:08.315Z,17.30
2017-09-19T02:24:36.569Z,15.10
2017-09-19T02:27:06.210Z,16.13
2017-09-19T02:29:34.388Z,15.80
2017-09-19T02:32:03.969Z,15.57
2017-09-19T02:34:32.144Z,17.43
2017-09-19T02:37:00.301Z,16.67
2017-09-19T02:39:28.430Z,16.57
2017-09-19T02:41:56.672Z,16.90
2017-09-19T02:44:25.609Z,17.13
2017-09-19T02:46:53.768Z,17.40
2017-09-19T02:49:22.628Z,15.87
2017-09-19T02:51:51.572Z,17.77
2017-09-19T02:54:19.686Z,17.70
2017-09-19T02:56:47.988Z,17.40
2017-09-19T02:59:16.195Z,18.40
2017-09-19T03:01:44.931Z,18.70
2017-09-19T03:04:13.058Z,17.57
2017-09-19T03:06:41.200Z,17.83
2017-09-19T03:09:10.101Z,18.40
2017-09-19T03:11:38.219Z,20.63
2017-09-19T03:14:06.322Z,19.20
2017-09-19T03:16:34.466Z,18.63
2017-09-19T03:19:04.876Z,19.43
2017-09-19T03:21:33.781Z,19.77
2017-09-19T03:24:01.911Z,18.27
2017-09-19T03:26:30.856Z,18.80
2017-09-19T03:29:00.495Z,19.00
2017-09-19T03:31:28.629Z,20.83
2017-09-19T03:33:56.772Z,19.67
2017-09-19T03:36:26.250Z,20.53
2017-09-19T03:38:54.455Z,18.27
2017-09-19T03:41:22.571Z,19.60
2017-09-19T03:43:50.702Z,19.70
2017-09-19T03:46:18.834Z,19.20
2017-09-19T03:48:46.977Z,20.47
2017-09-19T03:51:15.101Z,20.00
2017-09-19T03:53:43.235Z,19.83
2017-09-19T03:56:11.347Z,19.43
2017-09-19T03:58:40.221Z,21.00
2017-09-19T04:01:08.473Z,19.37
2017-09-19T04:03:36.635Z,19.50
2017-09-19T04:06:05.500Z,18.63
2017-09-19T04:08:33.843Z,19.13
2017-09-19T04:11:02.757Z,18.07
2017-09-19T04:13:30.932Z,18.87
2017-09-19T04:15:59.145Z,19.00
2017-09-19T04:18:28.065Z,18.87
2017-09-19T04:20:56.245Z,18.83
2017-09-19T04:23:24.516Z,17.20
2017-09-19T04:25:53.399Z,19.20
2017-09-19T04:28:22.326Z,16.97
2017-09-19T04:30:50.418Z,19.37
2017-09-19T04:33:19.327Z,17.23
2017-09-19T04:35:47.423Z,18.53
2017-09-19T04:38:16.302Z,17.63
2017-09-19T04:40:44.470Z,18.10
2017-09-19T04:43:17.411Z,19.13
2017-09-19T04:45:45.547Z,17.73
2017-09-19T04:48:13.675Z,19.33
2017-09-19T04:50:41.797Z,18.23
2017-09-19T04:53:09.938Z,18.90
2017-09-19T04:55:38.850Z,20.00
2017-09-19T04:58:06.983Z,19.17
2017-09-19T05:00:35.101Z,20.27
2017-09-19T05:03:03.247Z,19.47
2017-09-19T05:05:31.365Z,20.60
2017-09-19T05:07:59.559Z,18.37
2017-09-19T05:10:27.677Z,18.90
2017-09-19T05:12:56.577Z,18.50
2017-09-19T05:15:24.717Z,19.70
2017-09-19T05:17:53.840Z,19.13
2017-09-19T05:20:22.001Z,19.50
2017-09-19T05:22:50.162Z,21.13
2017-09-19T05:25:18.354Z,21.33
2017-09-19T05:27:46.452Z,20.87
2017-09-19T05:30:15.416Z,21.63
2017-09-19T05:32:44.403Z,21.63
2017-09-19T05:35:14.041Z,19.20
2017-09-19T05:37:42.240Z,20.10
2017-09-19T05:40:11.020Z,18.90
2017-09-19T05:42:39.253Z,18.67
2017-09-19T05:45:07.391Z,29.33
2017-09-19T05:47:35.729Z,20.27
2017-09-19T05:50:03.895Z,19.87
2017-09-19T05:52:32.056Z,21.20
2017-09-19T05:55:00.295Z,22.53
2017-09-19T05:57:29.250Z,21.00
2017-09-19T05:59:59.574Z,20.70
2017-09-19T06:02:27.776Z,21.73
2017-09-19T06:04:56.188Z,21.53
2017-09-19T06:07:25.094Z,25.80
2017-09-19T06:09:53.339Z,23.50
2017-09-19T06:12:21.493Z,24.70
2017-09-19T06:14:50.416Z,23.67
2017-09-19T06:17:18.582Z,26.33
2017-09-19T06:19:47.487Z,24.43
2017-09-19T06:22:16.251Z,22.60
2017-09-19T06:24:47.573Z,23.10
2017-09-19T06:27:25.805Z,23.30
2017-09-19T06:29:53.929Z,23.10
2017-09-19T06:32:22.933Z,26.90
2017-09-19T06:34:51.850Z,24.30
2017-09-19T06:37:20.001Z,24.80
2017-09-19T06:39:48.113Z,24.23
2017-09-19T06:42:16.208Z,26.77
2017-09-19T06:44:45.504Z,27.27
2017-09-19T06:47:13.701Z,27.20
2017-09-19T06:49:42.589Z,27.07
2017-09-19T06:52:10.726Z,28.87
2017-09-19T06:54:38.872Z,28.50
2017-09-19T06:57:07.358Z,30.70
2017-09-19T06:59:43.379Z,35.40
2017-09-19T07:02:11.548Z,33.50
2017-09-19T07:04:39.683Z,33.13
2017-09-19T07:07:07.876Z,33.57
2017-09-19T07:09:36.006Z,36.73
2017-09-19T07:12:04.155Z,41.13
2017-09-19T07:14:32.359Z,44.63
2017-09-19T07:17:00.522Z,36.93
2017-09-19T07:19:29.427Z,33.73
2017-09-19T07:21:57.559Z,32.47
2017-09-19T07:24:30.321Z,34.50
2017-09-19T07:27:02.202Z,34.37
2017-09-19T07:29:30.369Z,35.10
2017-09-19T07:31:59.343Z,32.80
2017-09-19T07:34:27.495Z,33.53
2017-09-19T07:36:55.633Z,33.53
2017-09-19T07:39:23.778Z,34.47
2017-09-19T07:41:51.926Z,30.30
2017-09-19T07:44:21.015Z,32.33
2017-09-19T07:46:49.663Z,33.47
2017-09-19T07:49:17.971Z,33.53
2017-09-19T07:51:46.898Z,31.43
2017-09-19T07:54:15.110Z,32.93
2017-09-19T07:56:44.056Z,35.97
2017-09-19T07:59:12.171Z,32.77
2017-09-19T08:01:41.074Z,32.50
2017-09-19T08:04:09.238Z,34.10
2017-09-19T08:06:37.389Z,34.27
2017-09-19T08:09:07.266Z,34.60
2017-09-19T08:11:35.378Z,37.10
2017-09-19T08:14:03.544Z,35.60
2017-09-19T08:16:33.109Z,37.40
2017-09-19T08:19:01.248Z,34.80
2017-09-19T08:21:29.373Z,37.10
2017-09-19T08:23:57.529Z,35.77
2017-09-19T08:26:25.679Z,33.50
2017-09-19T08:28:53.833Z,32.87
2017-09-19T08:31:21.946Z,34.87
2017-09-19T08:33:50.467Z,35.33
2017-09-19T08:36:18.615Z,33.97
2017-09-19T08:38:46.993Z,33.43
2017-09-19T08:41:16.452Z,36.27
2017-09-19T08:43:44.591Z,34.63
2017-09-19T08:46:12.772Z,33.97
2017-09-19T08:48:42.529Z,32.90
2017-09-19T08:51:10.692Z,31.77
2017-09-19T08:53:39.589Z,30.03
2017-09-19T08:56:08.533Z,27.90
2017-09-19T08:58:36.708Z,27.30
2017-09-19T09:01:04.881Z,23.37
2017-09-19T09:03:33.018Z,23.63
2017-09-19T09:06:01.149Z,23.10
2017-09-19T09:08:29.382Z,19.87
2017-09-19T09:10:57.541Z,19.47
2017-09-19T09:13:25.723Z,21.70
2017-09-19T09:15:54.640Z,22.77
2017-09-19T09:18:22.851Z,20.47
2017-09-19T09:20:51.023Z,19.63
2017-09-19T09:23:19.163Z,20.60
2017-09-19T09:25:47.361Z,23.07
2017-09-19T09:28:15.546Z,23.83
2017-09-19T09:30:43.679Z,22.93
2017-09-19T09:33:11.826Z,22.87
2017-09-19T09:35:39.987Z,22.87
2017-09-19T09:38:08.090Z,22.73
2017-09-19T09:40:37.306Z,23.10
2017-09-19T09:43:05.781Z,25.37
2017-09-19T09:45:35.424Z,21.40
2017-09-19T09:48:03.621Z,21.30
2017-09-19T09:50:31.792Z,20.07
2017-09-19T09:52:59.959Z,21.67
2017-09-19T09:55:28.108Z,21.27
2017-09-19T09:57:56.289Z,19.33
2017-09-19T10:00:24.502Z,20.87
2017-09-19T10:02:52.652Z,19.50
2017-09-19T10:05:20.778Z,20.93
2017-09-19T10:07:48.939Z,21.30
2017-09-19T10:10:17.095Z,19.60
2017-09-19T10:12:45.218Z,18.70
2017-09-19T10:15:13.400Z,20.00
2017-09-19T10:17:42.349Z,18.80
2017-09-19T10:20:11.136Z,19.50
2017-09-19T10:22:39.305Z,18.27
2017-09-19T10:25:07.484Z,16.97
2017-09-19T10:27:35.626Z,14.20
2017-09-19T10:30:04.774Z,17.70
2017-09-19T10:32:33.062Z,17.13
2017-09-19T10:35:01.237Z,16.97
2017-09-19T10:37:29.431Z,16.30
2017-09-19T10:39:57.552Z,16.27
2017-09-19T10:42:25.694Z,14.03
2017-09-19T10:44:53.811Z,14.70
2017-09-19T10:47:22.003Z,13.43
2017-09-19T10:49:50.891Z,15.20
2017-09-19T10:52:19.006Z,14.50
2017-09-19T10:54:47.220Z,14.57
2017-09-19T10:57:15.338Z,13.50
2017-09-19T10:59:43.462Z,12.70
2017-09-19T11:02:11.687Z,12.17
2017-09-19T11:04:39.860Z,11.30
2017-09-19T11:07:08.922Z,12.17
2017-09-19T11:09:37.105Z,12.20
2017-09-19T11:12:05.276Z,10.50
2017-09-19T11:14:33.426Z,9.37
2017-09-19T11:17:02.307Z,9.90
2017-09-19T11:19:30.446Z,8.67
2017-09-19T11:21:58.599Z,10.07
2017-09-19T11:24:26.745Z,11.03
2017-09-19T11:26:54.898Z,10.87
2017-09-19T11:29:23.818Z,10.73
2017-09-19T11:31:51.968Z,10.70
2017-09-19T11:34:20.701Z,10.03
2017-09-19T11:36:49.688Z,10.40
2017-09-19T11:39:17.895Z,8.93
2017-09-19T11:41:46.039Z,8.77
2017-09-19T11:44:14.946Z,8.53
2017-09-19T11:46:43.051Z,9.53
2017-09-19T11:49:11.183Z,10.80
2017-09-19T11:51:39.335Z,12.53
2017-09-19T11:54:09.584Z,12.70
2017-09-19T11:56:39.223Z,12.63
2017-09-19T11:59:11.533Z,11.70
2017-09-19T12:01:40.494Z,12.13
2017-09-19T12:04:09.477Z,12.37
2017-09-19T12:06:37.605Z,10.07
2017-09-19T12:09:06.932Z,13.00
2017-09-19T12:11:35.852Z,11.70
2017-09-19T12:14:04.026Z,11.10
2017-09-19T12:16:32.165Z,12.00
2017-09-19T12:19:00.296Z,11.10
2017-09-19T12:21:28.449Z,11.13
2017-09-19T12:23:56.573Z,9.63
2017-09-19T12:26:24.770Z,12.00
2017-09-19T12:28:53.068Z,11.10
2017-09-19T12:31:22.017Z,13.60
2017-09-19T12:33:50.181Z,12.83
2017-09-19T12:36:19.156Z,12.57
2017-09-19T12:38:48.058Z,12.80
2017-09-19T12:41:16.189Z,11.57
2017-09-19T12:43:44.304Z,10.23
2017-09-19T12:46:12.484Z,13.23
2017-09-19T12:48:40.609Z,12.67
2017-09-19T12:51:09.528Z,10.60
2017-09-19T12:53:37.658Z,13.17
2017-09-19T12:56:06.564Z,14.83
2017-09-19T12:58:35.455Z,16.07
2017-09-19T13:01:03.590Z,12.97
2017-09-19T13:03:31.698Z,13.20
2017-09-19T13:06:00.584Z,14.23
2017-09-19T13:08:28.707Z,15.40
2017-09-19T13:10:56.821Z,26.77
2017-09-19T13:13:25.740Z,18.40
2017-09-19T13:15:53.871Z,20.07
2017-09-19T13:18:22.047Z,15.33
2017-09-19T13:20:50.187Z,24.60
2017-09-19T13:23:18.322Z,27.30
2017-09-19T13:25:46.572Z,18.27
2017-09-19T13:28:14.771Z,22.70
2017-09-19T13:30:42.932Z,29.40
2017-09-19T13:33:22.998Z,23.07
2017-09-19T13:35:51.125Z,15.90
2017-09-19T13:38:21.427Z,17.17
2017-09-19T13:40:50.369Z,19.60
2017-09-19T13:43:18.487Z,14.27
2017-09-19T13:45:46.632Z,15.80
2017-09-19T13:48:14.774Z,15.10
2017-09-19T13:50:42.930Z,16.73
2017-09-19T13:53:11.096Z,15.63
2017-09-19T13:55:40.059Z,14.50
2017-09-19T13:58:08.295Z,13.40
2017-09-19T14:00:36.411Z,14.70
2017-09-19T14:03:04.572Z,14.33
2017-09-19T14:05:32.712Z,14.50
2017-09-19T14:08:00.920Z,15.07
2017-09-19T14:10:29.019Z,14.90
2017-09-19T14:12:57.179Z,15.50
2017-09-19T14:15:25.340Z,17.90
2017-09-19T14:17:53.588Z,18.20
2017-09-19T14:20:21.706Z,16.83
2017-09-19T14:22:49.832Z,17.10
2017-09-19T14:25:17.999Z,13.60
2017-09-19T14:27:46.133Z,17.33
2017-09-19T14:30:14.314Z,18.80
2017-09-19T14:32:42.468Z,21.33
2017-09-19T14:35:10.650Z,20.30
2017-09-19T14:37:38.840Z,21.90
2017-09-19T14:40:07.750Z,20.50
2017-09-19T14:42:36.229Z,20.37
2017-09-19T14:45:04.427Z,22.20
2017-09-19T14:47:32.894Z,21.53
2017-09-19T14:50:01.029Z,24.20
2017-09-19T14:52:29.233Z,23.23
2017-09-19T14:54:57.477Z,22.93
2017-09-19T14:57:26.411Z,23.60
2017-09-19T14:59:54.624Z,22.43
2017-09-19T15:02:22.849Z,24.60
2017-09-19T15:04:52.931Z,23.00
2017-09-19T15:07:21.805Z,23.00
2017-09-19T15:09:50.771Z,23.53
2017-09-19T15:12:18.983Z,26.47
2017-09-19T15:14:47.888Z,25.57
2017-09-19T15:17:16.658Z,24.70
2017-09-19T15:19:45.522Z,24.50
2017-09-19T15:22:15.111Z,23.30
2017-09-19T15:24:43.630Z,22.60
2017-09-19T15:27:11.772Z,23.67
2017-09-19T15:29:39.902Z,22.33
2017-09-19T15:32:08.027Z,24.00
2017-09-19T15:34:36.148Z,21.87
2017-09-19T15:37:05.037Z,22.63
2017-09-19T15:39:33.200Z,23.03
2017-09-19T15:42:01.394Z,22.00
2017-09-19T15:44:30.272Z,22.63
2017-09-19T15:46:58.401Z,25.80
2017-09-19T15:49:26.518Z,22.40
2017-09-19T15:51:56.684Z,25.80
2017-09-19T15:54:24.849Z,22.13
2017-09-19T15:56:53.744Z,23.33
2017-09-19T15:59:22.632Z,23.07
2017-09-19T16:01:50.812Z,23.50
2017-09-19T16:04:19.851Z,24.47
2017-09-19T16:06:47.975Z,24.30
2017-09-19T16:09:16.173Z,25.47
2017-09-19T16:11:45.825Z,24.30
2017-09-19T16:14:14.032Z,23.07
2017-09-19T16:16:42.192Z,24.77
2017-09-19T16:19:10.417Z,24.90
2017-09-19T16:21:38.592Z,23.83
2017-09-19T16:24:06.853Z,22.90
2017-09-19T16:26:35.023Z,24.13
2017-09-19T16:29:03.155Z,24.30
2017-09-19T16:31:31.346Z,24.57
2017-09-19T16:34:01.013Z,23.20
2017-09-19T16:36:29.153Z,21.60
2017-09-19T16:38:58.763Z,23.40
2017-09-19T16:41:27.055Z,24.27
2017-09-19T16:43:56.840Z,23.83
2017-09-19T16:46:28.184Z,23.10
2017-09-19T16:48:57.146Z,21.27
2017-09-19T16:51:28.232Z,19.80
2017-09-19T16:53:57.749Z,18.70
2017-09-19T16:56:27.092Z,15.40
2017-09-19T16:58:55.253Z,16.47
2017-09-19T17:01:24.924Z,14.73
2017-09-19T17:03:54.714Z,14.37
2017-09-19T17:08:58.945Z,11.83
2017-09-19T17:11:29.143Z,12.70
2017-09-19T17:13:57.308Z,11.70
2017-09-19T17:16:26.371Z,13.63
2017-09-19T17:18:55.889Z,10.63
2017-09-19T17:21:24.142Z,11.53
2017-09-19T17:23:52.558Z,11.53
2017-09-19T17:26:20.751Z,11.97
2017-09-19T17:28:51.778Z,64.77
2017-09-19T17:31:21.908Z,19.10
2017-09-19T17:33:51.841Z,25.57
2017-09-19T17:36:21.659Z,32.77
2017-09-19T17:38:53.913Z,12.90
2017-09-19T17:41:24.337Z,7.33
2017-09-19T17:44:03.352Z,8.97
2017-09-19T17:46:33.148Z,7.57
2017-09-19T17:49:02.957Z,7.97
2017-09-19T17:51:31.946Z,7.33
2017-09-19T17:54:02.476Z,20.40
2017-09-19T17:56:30.691Z,9.50
2017-09-19T17:59:00.493Z,7.53
2017-09-19T18:01:30.983Z,8.13
2017-09-19T18:04:00.087Z,8.30
2017-09-19T18:06:28.221Z,8.30
2017-09-19T18:08:56.656Z,8.73
2017-09-19T18:11:24.847Z,9.80
2017-09-19T18:13:53.672Z,9.63
2017-09-19T18:16:22.783Z,10.63
2017-09-19T18:18:51.014Z,11.37
2017-09-19T18:21:19.183Z,10.20
2017-09-19T18:23:47.493Z,10.83
2017-09-19T18:26:17.695Z,10.23
2017-09-19T18:28:45.988Z,15.13
2017-09-19T18:31:14.179Z,9.30
2017-09-19T18:33:43.114Z,10.70
2017-09-19T18:36:11.256Z,10.27
2017-09-19T18:38:39.434Z,10.23
2017-09-19T18:41:08.301Z,9.97
2017-09-19T18:43:36.733Z,10.90
2017-09-19T18:46:05.622Z,10.07
2017-09-19T18:48:33.851Z,11.10
2017-09-19T18:51:01.980Z,11.17
2017-09-19T18:53:30.113Z,10.80
2017-09-19T18:55:59.514Z,11.87
2017-09-19T18:58:33.363Z,10.53
2017-09-19T19:01:02.264Z,10.47
2017-09-19T19:03:31.985Z,11.13
2017-09-19T19:06:00.122Z,11.97
2017-09-19T19:08:28.722Z,11.80
2017-09-19T19:10:57.129Z,10.83
2017-09-19T19:13:25.363Z,14.13
2017-09-19T19:15:56.378Z,11.13
2017-09-19T19:21:36.330Z,11.43
2017-09-19T19:24:15.353Z,11.00
2017-09-19T19:26:49.404Z,10.60
2017-09-19T19:29:31.983Z,11.40
2017-09-19T19:35:34.989Z,11.23
2017-09-19T19:38:03.767Z,10.37
2017-09-19T19:40:31.893Z,10.13
2017-09-19T19:43:02.137Z,10.80
2017-09-19T19:45:38.499Z,10.87
2017-09-19T19:48:08.697Z,10.60
2017-09-19T19:50:36.814Z,10.60
2017-09-19T19:53:05.821Z,11.10
2017-09-19T19:55:34.806Z,11.57
2017-09-19T19:58:05.911Z,10.97
2017-09-19T20:00:34.058Z,10.67
2017-09-19T20:03:02.997Z,11.77
2017-09-19T20:05:37.930Z,11.03
2017-09-19T20:08:06.870Z,10.50
2017-09-19T20:10:35.721Z,10.77
2017-09-19T20:13:03.871Z,12.43
2017-09-19T20:15:32.026Z,12.13
2017-09-19T20:18:00.183Z,12.30
2017-09-19T20:20:30.285Z,15.30
2017-09-19T20:23:01.138Z,11.87
2017-09-19T20:25:29.370Z,11.13
2017-09-19T20:27:58.281Z,11.37
2017-09-19T20:30:27.740Z,10.77
2017-09-19T20:32:56.230Z,11.03
2017-09-19T20:35:24.448Z,9.43
2017-09-19T20:37:53.230Z,10.03
2017-09-19T20:40:22.043Z,9.97
2017-09-19T20:42:50.968Z,9.60
2017-09-19T20:45:26.116Z,8.03
2017-09-19T20:47:57.522Z,8.80
2017-09-19T20:50:25.721Z,11.40
2017-09-19T20:52:57.853Z,8.17
2017-09-19T20:55:41.723Z,7.70
2017-09-19T20:58:13.173Z,7.63
2017-09-19T21:04:00.108Z,6.30
2017-09-19T21:06:36.495Z,7.30
2017-09-19T21:09:10.204Z,5.90
2017-09-19T21:11:44.344Z,6.17
2017-09-19T21:14:18.892Z,5.83
2017-09-19T21:16:53.563Z,6.17
2017-09-19T21:19:26.020Z,5.80
2017-09-19T21:21:56.818Z,5.50
2017-09-19T21:24:25.004Z,5.43
2017-09-19T21:26:55.044Z,6.00
2017-09-19T21:29:23.217Z,5.23
2017-09-19T21:31:51.432Z,5.70
2017-09-19T21:34:19.604Z,5.60
2017-09-19T21:36:47.734Z,5.60
2017-09-19T21:39:16.622Z,6.73
2017-09-19T21:41:44.780Z,4.17
2017-09-19T21:44:12.974Z,6.27
2017-09-19T21:46:41.136Z,5.87
2017-09-19T21:49:09.258Z,5.23
2017-09-19T21:51:37.440Z,3.50
2017-09-19T21:54:05.677Z,5.23
2017-09-19T21:56:34.584Z,4.33
2017-09-19T21:59:02.739Z,4.33
2017-09-19T22:01:30.874Z,4.43
2017-09-19T22:03:59.041Z,4.00
2017-09-19T22:06:27.957Z,8.37
2017-09-19T22:08:57.063Z,3.93
2017-09-19T22:11:25.948Z,4.00
2017-09-19T22:13:54.086Z,3.57
2017-09-19T22:16:22.244Z,5.53
2017-09-19T22:18:50.753Z,4.10
2017-09-19T22:21:18.878Z,4.83
2017-09-19T22:23:46.981Z,3.70
2017-09-19T22:26:15.106Z,3.80
2017-09-19T22:28:43.987Z,3.13
2017-09-19T22:31:12.098Z,3.97
2017-09-19T22:33:41.031Z,6.20
2017-09-19T22:36:09.187Z,2.50
2017-09-19T22:38:38.016Z,4.20
2017-09-19T22:41:06.127Z,4.37
2017-09-19T22:43:34.293Z,2.80
2017-09-19T22:46:02.419Z,4.30
2017-09-19T22:48:30.602Z,3.40
2017-09-19T22:50:59.496Z,4.13
2017-09-19T22:53:27.612Z,5.37
2017-09-19T22:55:55.731Z,4.43
2017-09-19T22:58:24.639Z,2.27
2017-09-19T23:00:52.743Z,4.40
2017-09-19T23:03:20.955Z,4.07
2017-09-19T23:05:49.332Z,3.70
2017-09-19T23:08:17.482Z,2.70
2017-09-19T23:10:46.431Z,2.73
2017-09-19T23:13:14.554Z,3.67
2017-09-19T23:15:42.705Z,3.37
2017-09-19T23:18:11.593Z,5.97
2017-09-19T23:20:39.690Z,2.80
2017-09-19T23:23:07.835Z,2.30
2017-09-19T23:25:35.924Z,4.30
2017-09-19T23:28:04.081Z,2.43
2017-09-19T23:30:32.219Z,3.63
2017-09-19T23:33:00.314Z,4.87
2017-09-19T23:35:28.502Z,6.00
2017-09-19T23:37:56.598Z,2.87
2017-09-19T23:40:24.740Z,4.07
2017-09-19T23:42:52.847Z,3.17
2017-09-19T23:45:21.734Z,2.60
2017-09-19T23:47:49.948Z,2.40
2017-09-19T23:50:18.050Z,3.40
2017-09-19T23:52:46.235Z,4.10
2017-09-19T23:55:14.387Z,3.20
2017-09-19T23:57:42.493Z,3.70
